createdAt,value
2022-11-12T00:00:45.471Z,99.23
2022-11-12T00:01:45.509Z,99.33
2022-11-12T00:02:45.443Z,99.49
2022-11-12T00:03:45.463Z,99.64
2022-11-12T00:04:45.440Z,99.60
2022-11-12T00:05:45.389Z,99.70
2022-11-12T00:06:45.452Z,99.85
2022-11-12T00:07:45.403Z,99.90
2022-11-12T00:08:45.361Z,99.95
2022-11-12T00:09:45.363Z,99.99
2022-11-12T00:10:45.365Z,99.99
2022-11-12T00:11:45.364Z,99.99
2022-11-12T00:12:45.355Z,99.99
2022-11-12T00:13:45.345Z,99.99
2022-11-12T00:14:45.314Z,99.99
2022-11-12T00:15:45.316Z,99.90
2022-11-12T00:16:45.325Z,99.80
2022-11-12T00:17:45.295Z,99.80
2022-11-12T00:18:45.276Z,99.95
2022-11-12T00:19:45.263Z,99.95
2022-11-12T00:20:45.267Z,99.95
2022-11-12T00:21:45.256Z,99.85
2022-11-12T00:22:45.234Z,99.95
2022-11-12T00:23:45.226Z,99.95
2022-11-12T00:24:45.234Z,99.99
2022-11-12T00:25:45.223Z,99.95
2022-11-12T00:26:45.186Z,99.95
2022-11-12T00:27:45.186Z,99.95
2022-11-12T00:28:45.166Z,99.95
2022-11-12T00:29:45.143Z,99.95
2022-11-12T00:30:45.162Z,99.95
2022-11-12T00:31:45.143Z,99.99
2022-11-12T00:32:45.126Z,99.99
2022-11-12T00:33:45.127Z,99.95
2022-11-12T00:34:45.093Z,99.99
2022-11-12T00:35:45.118Z,99.99
2022-11-12T00:36:45.078Z,99.99
2022-11-12T00:37:45.097Z,99.99
2022-11-12T00:38:45.055Z,99.99
2022-11-12T00:39:45.058Z,99.99
2022-11-12T00:40:45.030Z,99.95
2022-11-12T00:41:45.027Z,99.99
2022-11-12T00:42:45.028Z,99.99
2022-11-12T00:43:45.020Z,99.99
2022-11-12T00:44:45.021Z,99.99
2022-11-12T00:45:44.984Z,99.99
2022-11-12T00:46:44.978Z,99.99
2022-11-12T00:47:44.964Z,99.99
2022-11-12T00:48:44.968Z,99.99
2022-11-12T00:49:44.957Z,99.99
2022-11-12T00:50:44.955Z,99.99
2022-11-12T00:51:44.937Z,99.99
2022-11-12T00:52:44.928Z,99.99
2022-11-12T00:53:44.907Z,99.99
2022-11-12T00:54:44.910Z,99.99
2022-11-12T00:55:44.882Z,99.99
2022-11-12T00:56:44.859Z,99.99
2022-11-12T00:57:44.876Z,99.99
2022-11-12T00:58:44.849Z,99.99
2022-11-12T00:59:44.830Z,99.99
2022-11-12T01:00:44.881Z,99.99
2022-11-12T01:01:44.810Z,99.99
2022-11-12T01:02:50.404Z,99.99
2022-11-12T01:03:45.861Z,99.99
2022-11-12T01:04:44.800Z,99.99
2022-11-12T01:05:44.770Z,99.99
2022-11-12T01:06:44.831Z,99.99
2022-11-12T01:07:44.771Z,99.99
2022-11-12T01:08:44.741Z,99.99
2022-11-12T01:09:44.751Z,99.99
2022-11-12T01:10:44.740Z,99.99
2022-11-12T01:11:44.711Z,99.99
2022-11-12T01:12:44.721Z,99.99
2022-11-12T01:13:44.687Z,99.99
2022-11-12T01:14:44.671Z,99.99
2022-11-12T01:15:44.659Z,99.99
2022-11-12T01:16:44.651Z,99.99
2022-11-12T01:17:44.651Z,99.99
2022-11-12T01:18:44.652Z,99.99
2022-11-12T01:19:44.643Z,99.99
2022-11-12T01:20:44.610Z,99.99
2022-11-12T01:21:44.623Z,99.99
2022-11-12T01:22:44.591Z,99.99
2022-11-12T01:23:44.594Z,99.99
2022-11-12T01:24:44.569Z,99.99
2022-11-12T01:25:44.573Z,99.99
2022-11-12T01:26:44.552Z,99.99
2022-11-12T01:27:44.568Z,99.99
2022-11-12T01:28:44.536Z,99.99
2022-11-12T01:29:44.540Z,99.99
2022-11-12T01:30:44.511Z,99.99
2022-11-12T01:31:44.518Z,99.99
2022-11-12T01:32:44.493Z,99.99
2022-11-12T01:33:44.494Z,99.99
2022-11-12T01:34:44.454Z,99.99
2022-11-12T01:35:44.463Z,99.99
2022-11-12T01:36:44.444Z,99.99
2022-11-12T01:37:44.443Z,99.99
2022-11-12T01:38:44.414Z,99.99
2022-11-12T01:39:44.405Z,99.99
2022-11-12T01:40:44.386Z,99.99
2022-11-12T01:41:44.385Z,99.99
2022-11-12T01:42:44.369Z,99.99
2022-11-12T01:43:44.386Z,99.99
2022-11-12T01:44:44.343Z,99.99
2022-11-12T01:45:44.355Z,99.99
2022-11-12T01:46:44.324Z,99.99
2022-11-12T01:47:44.335Z,99.99
2022-11-12T01:48:44.325Z,99.99
2022-11-12T01:49:48.741Z,99.99
2022-11-12T01:50:45.285Z,99.99
2022-11-12T01:51:44.284Z,99.99
2022-11-12T01:52:44.271Z,99.99
2022-11-12T01:53:44.295Z,99.99
2022-11-12T01:54:44.275Z,99.99
2022-11-12T01:55:44.221Z,99.99
2022-11-12T01:56:44.233Z,99.99
2022-11-12T01:57:44.232Z,99.99
2022-11-12T01:58:44.214Z,99.99
2022-11-12T01:59:44.205Z,99.99
2022-11-12T02:00:44.247Z,99.99
2022-11-12T02:01:44.175Z,99.99
2022-11-12T02:02:44.156Z,99.99
2022-11-12T02:03:44.176Z,99.99
2022-11-12T02:04:44.140Z,99.99
2022-11-12T02:05:44.136Z,99.99
2022-11-12T02:06:44.199Z,99.99
2022-11-12T02:07:44.112Z,99.99
2022-11-12T02:08:44.085Z,99.99
2022-11-12T02:09:44.097Z,99.99
2022-11-12T02:10:44.086Z,99.99
2022-11-12T02:11:44.064Z,99.99
2022-11-12T02:12:44.055Z,99.99
2022-11-12T02:13:44.058Z,99.99
2022-11-12T02:14:44.036Z,99.99
2022-11-12T02:15:44.027Z,99.99
2022-11-12T02:16:44.005Z,99.99
2022-11-12T02:17:44.037Z,99.99
2022-11-12T02:18:43.983Z,99.99
2022-11-12T02:19:43.962Z,99.99
2022-11-12T02:20:43.973Z,99.99
2022-11-12T02:21:43.966Z,99.99
2022-11-12T02:22:43.941Z,99.99
2022-11-12T02:23:43.936Z,99.99
2022-11-12T02:24:43.926Z,99.99
2022-11-12T02:25:43.906Z,99.99
2022-11-12T02:26:43.927Z,99.99
2022-11-12T02:27:43.897Z,99.99
2022-11-12T02:28:43.878Z,99.99
2022-11-12T02:29:43.873Z,99.99
2022-11-12T02:30:43.883Z,99.99
2022-11-12T02:31:43.857Z,99.99
2022-11-12T02:32:43.864Z,99.99
2022-11-12T02:33:43.846Z,99.99
2022-11-12T02:34:43.828Z,99.99
2022-11-12T02:35:43.817Z,99.99
2022-11-12T02:36:43.807Z,99.99
2022-11-12T02:37:43.777Z,99.99
2022-11-12T02:38:43.754Z,99.99
2022-11-12T02:39:43.757Z,99.99
2022-11-12T02:40:43.755Z,99.99
2022-11-12T02:41:43.748Z,99.99
2022-11-12T02:42:43.728Z,99.99
2022-11-12T02:43:43.738Z,99.99
2022-11-12T02:44:43.727Z,99.99
2022-11-12T02:45:43.683Z,99.99
2022-11-12T02:46:43.688Z,99.99
2022-11-12T02:47:43.708Z,99.99
2022-11-12T02:48:43.644Z,99.93
2022-11-12T02:49:43.661Z,99.93
2022-11-12T02:50:43.634Z,99.93
2022-11-12T02:51:43.603Z,99.93
2022-11-12T02:52:43.611Z,99.87
2022-11-12T02:53:43.585Z,99.87
2022-11-12T02:54:43.581Z,99.87
2022-11-12T02:55:43.583Z,99.87
2022-11-12T02:56:43.561Z,99.77
2022-11-12T02:57:43.544Z,99.77
2022-11-12T02:58:43.557Z,99.77
2022-11-12T02:59:43.546Z,99.77
2022-11-12T03:00:43.594Z,99.77
2022-11-12T03:01:43.505Z,99.66
2022-11-12T03:02:43.499Z,99.77
2022-11-12T03:03:43.495Z,99.77
2022-11-12T03:04:48.316Z,99.77
2022-11-12T03:05:44.528Z,99.77
2022-11-12T03:06:43.503Z,99.77
2022-11-12T03:07:43.436Z,99.77
2022-11-12T03:08:43.435Z,99.77
2022-11-12T03:09:43.417Z,99.77
2022-11-12T03:10:43.475Z,99.77
2022-11-12T03:11:43.417Z,99.87
2022-11-12T03:12:43.406Z,99.87
2022-11-12T03:13:43.376Z,99.87
2022-11-12T03:14:43.369Z,99.87
2022-11-12T03:15:43.359Z,99.87
2022-11-12T03:16:43.366Z,99.87
2022-11-12T03:17:43.327Z,99.77
2022-11-12T03:18:43.327Z,99.77
2022-11-12T03:19:43.317Z,99.66
2022-11-12T03:20:43.304Z,99.77
2022-11-12T03:21:43.305Z,99.87
2022-11-12T03:22:43.285Z,99.77
2022-11-12T03:23:43.274Z,99.77
2022-11-12T03:24:43.269Z,99.77
2022-11-12T03:25:43.250Z,99.77
2022-11-12T03:26:43.241Z,99.77
2022-11-12T03:27:43.227Z,99.77
2022-11-12T03:28:43.238Z,99.77
2022-11-12T03:29:43.198Z,99.77
2022-11-12T03:30:43.218Z,99.77
2022-11-12T03:31:43.188Z,99.77
2022-11-12T03:32:43.177Z,99.66
2022-11-12T03:33:43.179Z,99.66
2022-11-12T03:34:43.175Z,99.66
2022-11-12T03:35:43.141Z,99.77
2022-11-12T03:36:43.168Z,99.66
2022-11-12T03:37:43.140Z,99.66
2022-11-12T03:38:43.127Z,99.56
2022-11-12T03:39:43.147Z,99.56
2022-11-12T03:40:43.106Z,99.56
2022-11-12T03:41:43.109Z,99.46
2022-11-12T03:42:43.070Z,99.51
2022-11-12T03:43:43.050Z,99.51
2022-11-12T03:44:43.051Z,99.40
2022-11-12T03:45:43.037Z,99.30
2022-11-12T03:46:44.336Z,99.30
2022-11-12T03:47:43.031Z,99.30
2022-11-12T03:48:43.010Z,99.19
2022-11-12T03:49:42.989Z,99.19
2022-11-12T03:50:42.988Z,99.09
2022-11-12T03:51:42.973Z,99.09
2022-11-12T03:52:42.980Z,99.19
2022-11-12T03:53:42.949Z,99.19
2022-11-12T03:54:42.948Z,99.19
2022-11-12T03:55:42.931Z,99.09
2022-11-12T03:56:42.940Z,99.09
2022-11-12T03:57:42.909Z,99.09
2022-11-12T03:58:42.900Z,99.19
2022-11-12T03:59:42.890Z,99.30
2022-11-12T04:00:42.883Z,99.30
2022-11-12T04:01:42.863Z,99.34
2022-11-12T04:02:42.882Z,99.44
2022-11-12T04:03:42.845Z,99.44
2022-11-12T04:04:42.840Z,99.44
2022-11-12T04:05:42.822Z,99.44
2022-11-12T04:06:42.854Z,99.44
2022-11-12T04:07:42.802Z,99.44
2022-11-12T04:08:42.820Z,99.55
2022-11-12T04:09:42.783Z,99.55
2022-11-12T04:10:42.773Z,99.55
2022-11-12T04:11:42.753Z,99.55
2022-11-12T04:12:42.759Z,99.55
2022-11-12T04:13:42.740Z,99.65
2022-11-12T04:14:42.754Z,99.76
2022-11-12T04:15:42.712Z,99.76
2022-11-12T04:16:42.712Z,99.76
2022-11-12T04:17:42.692Z,99.76
2022-11-12T04:18:42.690Z,99.76
2022-11-12T04:19:42.695Z,99.76
2022-11-12T04:20:42.662Z,99.76
2022-11-12T04:21:42.655Z,99.76
2022-11-12T04:22:42.644Z,99.76
2022-11-12T04:23:42.633Z,99.65
2022-11-12T04:24:42.651Z,99.76
2022-11-12T04:25:42.611Z,99.65
2022-11-12T04:26:42.623Z,99.76
2022-11-12T04:27:42.597Z,99.65
2022-11-12T04:28:42.582Z,99.65
2022-11-12T04:29:42.584Z,99.61
2022-11-12T04:30:42.558Z,99.61
2022-11-12T04:31:42.544Z,99.51
2022-11-12T04:32:42.545Z,99.51
2022-11-12T04:33:42.524Z,99.40
2022-11-12T04:34:42.589Z,99.40
2022-11-12T04:35:42.515Z,99.30
2022-11-12T04:36:42.624Z,99.30
2022-11-12T04:37:42.474Z,99.30
2022-11-12T04:38:42.474Z,99.30
2022-11-12T04:39:42.455Z,99.40
2022-11-12T04:40:42.464Z,99.30
2022-11-12T04:41:42.436Z,99.40
2022-11-12T04:42:42.425Z,99.30
2022-11-12T04:43:42.424Z,99.30
2022-11-12T04:44:42.418Z,99.30
2022-11-12T04:45:42.415Z,99.30
2022-11-12T04:46:42.393Z,99.30
2022-11-12T04:47:42.375Z,99.30
2022-11-12T04:48:42.365Z,99.40
2022-11-12T04:49:42.355Z,99.30
2022-11-12T04:50:42.385Z,99.30
2022-11-12T04:51:42.373Z,99.40
2022-11-12T04:52:42.315Z,99.40
2022-11-12T04:53:42.315Z,99.40
2022-11-12T04:54:42.306Z,99.40
2022-11-12T04:55:42.294Z,99.40
2022-11-12T04:56:42.277Z,99.40
2022-11-12T04:57:42.288Z,99.51
2022-11-12T04:58:42.268Z,99.51
2022-11-12T04:59:42.246Z,99.51
2022-11-12T05:00:42.256Z,99.51
2022-11-12T05:01:42.260Z,99.51
2022-11-12T05:02:42.216Z,99.51
2022-11-12T05:03:42.224Z,99.51
2022-11-12T05:04:42.199Z,99.61
2022-11-12T05:05:42.192Z,99.61
2022-11-12T05:06:42.216Z,99.61
2022-11-12T05:07:42.165Z,99.61
2022-11-12T05:08:42.168Z,99.61
2022-11-12T05:09:42.137Z,99.61
2022-11-12T05:10:42.132Z,99.61
2022-11-12T05:11:42.116Z,99.61
2022-11-12T05:12:42.103Z,99.61
2022-11-12T05:13:42.096Z,99.61
2022-11-12T05:14:42.105Z,99.61
2022-11-12T05:15:42.076Z,99.61
2022-11-12T05:16:42.056Z,99.71
2022-11-12T05:17:42.057Z,99.71
2022-11-12T05:18:42.038Z,99.71
2022-11-12T05:19:42.046Z,99.61
2022-11-12T05:20:42.037Z,99.61
2022-11-12T05:21:43.694Z,99.61
2022-11-12T05:22:47.845Z,99.61
2022-11-12T05:23:42.997Z,99.61
2022-11-12T05:24:42.865Z,99.61
2022-11-12T05:25:41.987Z,99.61
2022-11-12T05:26:41.978Z,99.61
2022-11-12T05:27:41.947Z,99.61
2022-11-12T05:28:41.930Z,99.61
2022-11-12T05:29:41.937Z,99.71
2022-11-12T05:30:41.928Z,99.71
2022-11-12T05:31:41.906Z,99.61
2022-11-12T05:32:41.907Z,99.61
2022-11-12T05:33:41.886Z,99.71
2022-11-12T05:34:41.869Z,99.82
2022-11-12T05:35:41.890Z,99.92
2022-11-12T05:36:41.849Z,99.92
2022-11-12T05:37:41.856Z,99.92
2022-11-12T05:38:41.828Z,99.92
2022-11-12T05:39:41.821Z,99.92
2022-11-12T05:40:41.829Z,99.99
2022-11-12T05:42:10.867Z,99.99
2022-11-12T05:42:42.780Z,99.99
2022-11-12T05:43:41.777Z,99.99
2022-11-12T05:44:41.790Z,99.99
2022-11-12T05:45:41.759Z,99.99
2022-11-12T05:46:41.754Z,99.99
2022-11-12T05:47:41.761Z,99.99
2022-11-12T05:48:41.719Z,99.99
2022-11-12T05:49:41.718Z,99.99
2022-11-12T05:51:06.324Z,99.99
2022-11-12T05:51:42.689Z,99.99
2022-11-12T05:52:41.829Z,99.99
2022-11-12T05:53:41.688Z,99.99
2022-11-12T05:54:41.650Z,99.99
2022-11-12T05:55:41.661Z,99.99
2022-11-12T05:56:41.630Z,99.99
2022-11-12T05:57:41.631Z,99.99
2022-11-12T05:58:41.631Z,99.99
2022-11-12T05:59:41.607Z,99.99
2022-11-12T06:00:41.591Z,99.99
2022-11-12T06:01:41.591Z,99.99
2022-11-12T06:02:43.021Z,99.99
2022-11-12T06:03:41.591Z,99.99
2022-11-12T06:04:41.550Z,99.99
2022-11-12T06:05:41.570Z,99.99
2022-11-12T06:06:41.574Z,99.99
2022-11-12T06:07:41.560Z,99.99
2022-11-12T06:08:41.510Z,99.99
2022-11-12T06:09:41.502Z,99.99
2022-11-12T06:10:41.489Z,99.99
2022-11-12T06:11:41.479Z,99.99
2022-11-12T06:12:41.461Z,99.99
2022-11-12T06:13:41.471Z,99.99
2022-11-12T06:14:41.441Z,99.99
2022-11-12T06:15:41.443Z,99.99
2022-11-12T06:16:41.420Z,99.99
2022-11-12T06:17:41.431Z,99.99
2022-11-12T06:18:41.402Z,99.99
2022-11-12T06:19:41.412Z,99.99
2022-11-12T06:20:41.375Z,99.99
2022-11-12T06:21:41.371Z,99.99
2022-11-12T06:22:41.364Z,99.99
2022-11-12T06:23:41.352Z,99.99
2022-11-12T06:24:41.332Z,99.99
2022-11-12T06:25:41.353Z,99.99
2022-11-12T06:26:41.321Z,99.99
2022-11-12T06:27:41.310Z,99.99
2022-11-12T06:28:41.310Z,99.99
2022-11-12T06:29:41.294Z,99.99
2022-11-12T06:30:41.271Z,99.99
2022-11-12T06:31:41.283Z,99.99
2022-11-12T06:32:41.253Z,99.99
2022-11-12T06:33:41.242Z,99.99
2022-11-12T06:34:41.251Z,99.99
2022-11-12T06:35:43.255Z,99.99
2022-11-12T06:36:41.222Z,99.99
2022-11-12T06:37:41.353Z,99.99
2022-11-12T06:38:41.202Z,99.99
2022-11-12T06:39:41.193Z,99.99
2022-11-12T06:40:41.233Z,99.99
2022-11-12T06:41:41.163Z,99.99
2022-11-12T06:42:41.153Z,99.99
2022-11-12T06:43:41.143Z,99.99
2022-11-12T06:44:41.124Z,99.99
2022-11-12T06:45:41.113Z,99.99
2022-11-12T06:46:41.104Z,99.99
2022-11-12T06:47:41.094Z,99.99
2022-11-12T06:48:41.073Z,99.99
2022-11-12T06:49:41.074Z,99.99
2022-11-12T06:50:41.054Z,99.99
2022-11-12T06:51:41.075Z,99.99
2022-11-12T06:52:41.056Z,99.99
2022-11-12T06:53:41.033Z,99.99
2022-11-12T06:54:41.039Z,99.99
2022-11-12T06:55:41.015Z,99.99
2022-11-12T06:56:41.008Z,99.99
2022-11-12T06:57:40.986Z,99.99
2022-11-12T06:58:40.975Z,99.99
2022-11-12T06:59:40.992Z,99.99
2022-11-12T07:00:40.945Z,99.99
2022-11-12T07:01:41.011Z,99.99
2022-11-12T07:02:40.925Z,99.99
2022-11-12T07:03:40.925Z,99.99
2022-11-12T07:04:40.906Z,99.99
2022-11-12T07:05:40.915Z,99.99
2022-11-12T07:06:40.954Z,99.99
2022-11-12T07:07:40.883Z,99.99
2022-11-12T07:08:40.867Z,99.99
2022-11-12T07:09:41.008Z,99.99
2022-11-12T07:10:40.855Z,99.99
2022-11-12T07:11:40.835Z,99.98
2022-11-12T07:12:40.825Z,99.98
2022-11-12T07:13:40.818Z,99.87
2022-11-12T07:14:40.796Z,99.72
2022-11-12T07:15:40.797Z,99.72
2022-11-12T07:16:41.727Z,99.66
2022-11-12T07:17:40.774Z,99.52
2022-11-12T07:18:40.757Z,99.52
2022-11-12T07:19:40.766Z,99.41
2022-11-12T07:20:40.747Z,99.41
2022-11-12T07:21:40.747Z,99.41
2022-11-12T07:22:40.715Z,99.52
2022-11-12T07:23:40.707Z,99.52
2022-11-12T07:24:40.687Z,99.52
2022-11-12T07:25:40.709Z,99.52
2022-11-12T07:26:44.632Z,99.52
2022-11-12T07:27:41.665Z,99.52
2022-11-12T07:28:40.647Z,99.52
2022-11-12T07:29:48.128Z,99.52
2022-11-12T07:30:41.668Z,99.41
2022-11-12T07:31:40.658Z,99.37
2022-11-12T07:32:45.075Z,99.37
2022-11-12T07:33:41.598Z,99.47
2022-11-12T07:34:40.588Z,99.47
2022-11-12T07:35:40.594Z,99.37
2022-11-12T07:36:40.580Z,99.26
2022-11-12T07:37:40.559Z,99.16
2022-11-12T07:38:40.539Z,99.16
2022-11-12T07:39:40.546Z,99.26
2022-11-12T07:40:40.519Z,99.26
2022-11-12T07:41:40.548Z,99.26
2022-11-12T07:42:40.526Z,99.06
2022-11-12T07:43:40.501Z,98.96
2022-11-12T07:44:40.478Z,98.96
2022-11-12T07:45:40.481Z,98.85
2022-11-12T07:46:40.461Z,98.85
2022-11-12T07:47:40.468Z,98.91
2022-11-12T07:48:40.439Z,98.91
2022-11-12T07:49:40.432Z,98.91
2022-11-12T07:50:40.419Z,98.70
2022-11-12T07:51:40.427Z,98.60
2022-11-12T07:52:40.400Z,98.50
2022-11-12T07:53:41.452Z,98.39
2022-11-12T07:54:40.400Z,98.29
2022-11-12T07:55:41.431Z,98.29
2022-11-12T07:56:40.372Z,98.14
2022-11-12T07:57:41.070Z,98.03
2022-11-12T07:58:40.343Z,98.03
2022-11-12T07:59:45.702Z,98.03
2022-11-12T08:00:41.331Z,98.03
2022-11-12T08:01:40.531Z,97.94
2022-11-12T08:02:40.309Z,97.83
2022-11-12T08:03:40.839Z,97.83
2022-11-12T08:04:40.290Z,97.73
2022-11-12T08:05:40.992Z,97.63
2022-11-12T08:06:40.376Z,97.63
2022-11-12T08:07:40.670Z,97.63
2022-11-12T08:08:40.251Z,97.63
2022-11-12T08:09:40.511Z,97.63
2022-11-12T08:10:40.219Z,97.63
2022-11-12T08:11:40.210Z,97.73
2022-11-12T08:12:40.191Z,97.73
2022-11-12T08:13:40.186Z,97.73
2022-11-12T08:14:40.155Z,97.73
2022-11-12T08:15:40.152Z,97.73
2022-11-12T08:16:40.153Z,97.83
2022-11-12T08:17:40.133Z,97.83
2022-11-12T08:18:40.120Z,97.83
2022-11-12T08:19:40.110Z,97.73
2022-11-12T08:20:40.096Z,97.83
2022-11-12T08:21:40.173Z,97.83
2022-11-12T08:22:42.753Z,97.83
2022-11-12T08:23:41.070Z,97.83
2022-11-12T08:24:40.061Z,97.73
2022-11-12T08:25:40.043Z,97.68
2022-11-12T08:26:40.034Z,97.58
2022-11-12T08:27:40.043Z,97.48
2022-11-12T08:28:40.013Z,97.48
2022-11-12T08:29:40.038Z,97.48
2022-11-12T08:30:39.991Z,97.48
2022-11-12T08:31:39.985Z,97.38
2022-11-12T08:32:39.963Z,97.33
2022-11-12T08:33:39.955Z,97.13
2022-11-12T08:34:39.947Z,97.02
2022-11-12T08:35:39.964Z,97.02
2022-11-12T08:36:39.934Z,96.81
2022-11-12T08:37:39.964Z,96.71
2022-11-12T08:38:39.904Z,96.56
2022-11-12T08:39:39.895Z,96.46
2022-11-12T08:40:39.875Z,96.36
2022-11-12T08:41:39.903Z,96.25
2022-11-12T08:42:39.857Z,96.05
2022-11-12T08:43:39.852Z,95.95
2022-11-12T08:44:39.850Z,95.70
2022-11-12T08:45:39.845Z,95.49
2022-11-12T08:46:39.815Z,95.28
2022-11-12T08:47:39.813Z,95.18
2022-11-12T08:48:39.795Z,94.98
2022-11-12T08:49:42.593Z,94.87
2022-11-12T08:50:40.766Z,94.83
2022-11-12T08:51:39.785Z,94.83
2022-11-12T08:52:39.745Z,94.93
2022-11-12T08:53:39.749Z,94.93
2022-11-12T08:54:39.776Z,94.83
2022-11-12T08:55:39.725Z,94.73
2022-11-12T08:56:39.714Z,94.73
2022-11-12T08:57:39.747Z,94.62
2022-11-12T08:58:39.706Z,94.37
2022-11-12T08:59:39.717Z,94.48
2022-11-12T09:00:39.687Z,94.68
2022-11-12T09:01:39.713Z,94.78
2022-11-12T09:02:39.646Z,94.68
2022-11-12T09:03:39.709Z,94.68
2022-11-12T09:04:39.677Z,94.48
2022-11-12T09:05:39.618Z,94.43
2022-11-12T09:06:39.640Z,94.43
2022-11-12T09:07:55.068Z,94.33
2022-11-12T09:08:40.583Z,93.82
2022-11-12T09:09:39.568Z,93.61
2022-11-12T09:10:39.581Z,93.30
2022-11-12T09:11:39.547Z,93.30
2022-11-12T09:12:39.547Z,93.26
2022-11-12T09:13:39.549Z,93.36
2022-11-12T09:14:39.518Z,93.36
2022-11-12T09:15:39.527Z,92.85
2022-11-12T09:16:39.561Z,92.85
2022-11-12T09:17:39.488Z,92.40
2022-11-12T09:18:39.479Z,92.19
2022-11-12T09:19:42.963Z,91.88
2022-11-12T09:20:39.480Z,91.88
2022-11-12T09:21:39.438Z,91.99
2022-11-12T09:22:39.436Z,92.08
2022-11-12T09:23:39.442Z,91.78
2022-11-12T09:24:40.422Z,91.67
2022-11-12T09:25:39.409Z,91.57
2022-11-12T09:26:40.389Z,91.47
2022-11-12T09:27:42.074Z,91.57
2022-11-12T09:28:41.569Z,91.57
2022-11-12T09:29:39.380Z,91.47
2022-11-12T09:30:40.370Z,91.47
2022-11-12T09:31:39.348Z,91.27
2022-11-12T09:32:40.050Z,91.47
2022-11-12T09:33:39.787Z,91.37
2022-11-12T09:34:39.643Z,91.16
2022-11-12T09:35:39.329Z,91.27
2022-11-12T09:36:40.065Z,91.06
2022-11-12T09:37:39.278Z,91.27
2022-11-12T09:38:39.282Z,91.16
2022-11-12T09:39:39.252Z,91.27
2022-11-12T09:40:39.259Z,91.16
2022-11-12T09:41:39.221Z,91.27
2022-11-12T09:42:39.220Z,91.47
2022-11-12T09:43:39.223Z,91.33
2022-11-12T09:44:39.198Z,91.22
2022-11-12T09:45:39.181Z,91.02
2022-11-12T09:46:39.192Z,91.22
2022-11-12T09:47:39.162Z,91.22
2022-11-12T09:48:39.176Z,91.22
2022-11-12T09:49:39.151Z,90.97
2022-11-12T09:50:39.143Z,90.67
2022-11-12T09:51:39.112Z,90.67
2022-11-12T09:52:39.131Z,90.56
2022-11-12T09:53:43.969Z,90.67
2022-11-12T09:54:40.097Z,90.56
2022-11-12T09:55:39.073Z,90.36
2022-11-12T09:56:39.083Z,90.32
2022-11-12T09:57:39.072Z,90.11
2022-11-12T09:58:39.057Z,89.90
2022-11-12T09:59:39.033Z,89.90
2022-11-12T10:00:42.471Z,89.81
2022-11-12T10:01:40.109Z,89.60
2022-11-12T10:02:39.012Z,89.56
2022-11-12T10:03:38.993Z,89.45
2022-11-12T10:04:38.991Z,89.15
2022-11-12T10:05:38.964Z,89.15
2022-11-12T10:06:39.028Z,88.94
2022-11-12T10:07:38.944Z,88.84
2022-11-12T10:08:38.950Z,88.90
2022-11-12T10:09:38.923Z,88.80
2022-11-12T10:10:38.925Z,88.39
2022-11-12T10:11:38.914Z,88.08
2022-11-12T10:12:38.895Z,87.73
2022-11-12T10:13:38.884Z,87.73
2022-11-12T10:14:38.885Z,87.63
2022-11-12T10:15:38.876Z,86.91
2022-11-12T10:16:38.873Z,86.67
2022-11-12T10:17:38.855Z,86.77
2022-11-12T10:18:38.835Z,86.67
2022-11-12T10:19:38.846Z,86.73
2022-11-12T10:20:39.031Z,86.53
2022-11-12T10:21:38.815Z,86.32
2022-11-12T10:22:38.789Z,85.91
2022-11-12T10:23:38.787Z,85.97
2022-11-12T10:24:38.776Z,85.57
2022-11-12T10:25:38.757Z,85.57
2022-11-12T10:26:38.767Z,85.36
2022-11-12T10:27:38.754Z,84.91
2022-11-12T10:28:39.392Z,84.71
2022-11-12T10:29:38.737Z,84.61
2022-11-12T10:30:38.707Z,84.41
2022-11-12T10:31:38.686Z,84.26
2022-11-12T10:32:38.736Z,84.06
2022-11-12T10:33:38.668Z,83.85
2022-11-12T10:34:38.659Z,83.24
2022-11-12T10:35:38.638Z,83.00
2022-11-12T10:36:38.638Z,83.30
2022-11-12T10:37:38.619Z,83.40
2022-11-12T10:38:38.638Z,83.06
2022-11-12T10:39:38.598Z,82.55
2022-11-12T10:40:38.618Z,82.04
2022-11-12T10:41:38.579Z,81.73
2022-11-12T10:42:38.570Z,81.90
2022-11-12T10:43:38.550Z,82.00
2022-11-12T10:44:38.550Z,81.39
2022-11-12T10:45:38.549Z,81.39
2022-11-12T10:46:38.530Z,80.84
2022-11-12T10:47:38.511Z,80.84
2022-11-12T10:48:38.501Z,80.74
2022-11-12T10:49:38.490Z,80.33
2022-11-12T10:50:38.513Z,80.23
2022-11-12T10:51:38.491Z,80.23
2022-11-12T10:52:38.471Z,80.13
2022-11-12T10:53:38.440Z,79.62
2022-11-12T10:54:38.473Z,79.48
2022-11-12T10:55:38.444Z,79.58
2022-11-12T10:56:38.421Z,79.89
2022-11-12T10:57:38.430Z,79.99
2022-11-12T10:58:38.409Z,79.75
2022-11-12T10:59:38.392Z,79.24
2022-11-12T11:00:38.392Z,78.73
2022-11-12T11:01:42.999Z,77.98
2022-11-12T11:02:39.354Z,78.28
2022-11-12T11:03:38.332Z,77.78
2022-11-12T11:04:38.341Z,77.87
2022-11-12T11:05:38.324Z,77.03
2022-11-12T11:06:38.381Z,76.92
2022-11-12T11:07:38.293Z,77.03
2022-11-12T11:08:38.627Z,76.82
2022-11-12T11:09:38.274Z,76.79
2022-11-12T11:10:38.291Z,75.98
2022-11-12T11:11:38.275Z,75.77
2022-11-12T11:12:38.255Z,75.37
2022-11-12T11:13:38.246Z,75.26
2022-11-12T11:14:38.224Z,74.92
2022-11-12T11:15:38.212Z,74.82
2022-11-12T11:16:38.216Z,74.52
2022-11-12T11:17:38.185Z,74.41
2022-11-12T11:18:38.185Z,74.38
2022-11-12T11:19:38.166Z,74.28
2022-11-12T11:20:38.185Z,74.07
2022-11-12T11:21:42.035Z,73.97
2022-11-12T11:22:38.155Z,73.53
2022-11-12T11:23:38.124Z,73.43
2022-11-12T11:24:38.127Z,72.99
2022-11-12T11:25:38.096Z,72.38
2022-11-12T11:26:38.113Z,71.94
2022-11-12T11:27:38.078Z,71.53
2022-11-12T11:28:38.069Z,71.33
2022-11-12T11:29:38.087Z,71.20
2022-11-12T11:30:38.167Z,71.00
2022-11-12T11:31:38.071Z,70.45
2022-11-12T11:32:38.117Z,70.12
2022-11-12T11:33:38.069Z,69.37
2022-11-12T11:34:38.079Z,68.40
2022-11-12T11:35:37.999Z,66.92
2022-11-12T11:36:37.988Z,65.14
2022-11-12T11:37:37.969Z,63.26
2022-11-12T11:38:37.960Z,61.33
2022-11-12T11:39:37.946Z,59.33
2022-11-12T11:40:37.962Z,57.11
2022-11-12T11:41:37.928Z,55.63
2022-11-12T11:42:37.919Z,53.94
2022-11-12T11:43:37.925Z,52.09
2022-11-12T11:44:37.898Z,51.25
2022-11-12T11:45:37.900Z,49.90
2022-11-12T11:46:37.879Z,49.05
2022-11-12T11:47:59.400Z,47.91
2022-11-12T11:48:38.854Z,46.87
2022-11-12T11:49:37.851Z,46.03
2022-11-12T11:50:37.842Z,45.51
2022-11-12T11:51:37.831Z,44.89
2022-11-12T11:52:37.815Z,44.79
2022-11-12T11:53:37.799Z,44.10
2022-11-12T11:54:37.784Z,43.88
2022-11-12T11:55:37.772Z,43.68
2022-11-12T11:56:37.785Z,43.56
2022-11-12T11:57:37.753Z,43.36
2022-11-12T11:58:37.745Z,42.66
2022-11-12T11:59:37.734Z,42.79
2022-11-12T12:00:37.730Z,42.39
2022-11-12T12:01:37.735Z,42.19
2022-11-12T12:02:37.702Z,42.94
2022-11-12T12:03:37.715Z,43.76
2022-11-12T12:04:37.676Z,43.49
2022-11-12T12:05:37.667Z,43.96
2022-11-12T12:06:37.694Z,43.96
2022-11-12T12:07:37.645Z,43.37
2022-11-12T12:08:37.656Z,43.66
2022-11-12T12:09:37.626Z,43.76
2022-11-12T12:11:01.360Z,43.59
2022-11-12T12:11:38.598Z,44.31
2022-11-12T12:12:37.596Z,44.18
2022-11-12T12:13:37.609Z,44.58
2022-11-12T12:14:37.569Z,45.00
2022-11-12T12:15:37.560Z,45.18
2022-11-12T12:16:37.565Z,44.96
2022-11-12T12:17:37.532Z,44.16
2022-11-12T12:18:37.530Z,44.14
2022-11-12T12:19:37.531Z,43.82
2022-11-12T12:20:37.510Z,43.82
2022-11-12T12:21:37.491Z,43.70
2022-11-12T12:22:37.485Z,43.20
2022-11-12T12:23:37.473Z,43.48
2022-11-12T12:24:37.482Z,43.18
2022-11-12T12:25:37.453Z,43.48
2022-11-12T12:26:37.465Z,42.99
2022-11-12T12:27:37.424Z,42.66
2022-11-12T12:28:37.423Z,41.97
2022-11-12T12:29:37.404Z,42.17
2022-11-12T12:30:37.395Z,41.87
2022-11-12T12:31:37.405Z,41.87
2022-11-12T12:32:37.387Z,42.37
2022-11-12T12:33:37.363Z,42.35
2022-11-12T12:34:37.364Z,42.13
2022-11-12T12:35:37.353Z,42.33
2022-11-12T12:36:37.370Z,42.65
2022-11-12T12:37:37.317Z,41.93
2022-11-12T12:38:37.317Z,41.33
2022-11-12T12:39:37.347Z,41.12
2022-11-12T12:40:37.302Z,41.12
2022-11-12T12:41:37.371Z,41.31
2022-11-12T12:42:37.283Z,41.39
2022-11-12T12:43:37.288Z,41.60
2022-11-12T12:44:37.259Z,41.38
2022-11-12T12:45:37.260Z,41.18
2022-11-12T12:46:37.245Z,40.98
2022-11-12T12:47:37.230Z,41.20
2022-11-12T12:48:37.263Z,41.39
2022-11-12T12:49:37.211Z,40.90
2022-11-12T12:50:37.232Z,41.00
2022-11-12T12:51:37.191Z,41.39
2022-11-12T12:52:37.172Z,42.01